Time;durP1;ratioP1;P1;durP2;ratioP2;P2;SDS_P1;SDS_P2;PMS_P1;PMS_P2;Temp;Humidity;BMP_temperature;BMP_pressure;BME280_temperature;BME280_humidity;BME280_pressure;Samples;Min_cycle;Max_cycle;Signal;HPM_P1;HPM_P2
2022/05/07 00:02:07;;;;;;;16.55;10.02;;;;;;;11.81;74.43;102214.50;5027058;28;20040;-85
2022/05/07 00:04:34;;;;;;;14.43;9.77;;;;;;;11.75;74.65;102215.72;5014803;28;20053;-86
2022/05/07 00:06:59;;;;;;;13.52;10.18;;;;;;;11.71;74.99;102219.56;5020378;28;20034;-87
2022/05/07 00:09:25;;;;;;;16.30;10.35;;;;;;;11.69;74.89;102216.03;5030107;28;20045;-87
2022/05/07 00:11:50;;;;;;;12.38;9.88;;;;;;;11.64;74.66;102207.22;4998524;28;20092;-87
2022/05/07 00:14:16;;;;;;;15.20;10.55;;;;;;;11.67;75.19;102219.81;5024769;28;20416;-85
2022/05/07 00:19:25;;;;;;;16.10;10.23;;;;;;;11.61;74.90;102201.97;5012200;28;20128;-87
2022/05/07 00:21:51;;;;;;;17.52;11.50;;;;;;;11.54;76.24;102211.44;5029304;28;20167;-88
2022/05/07 00:24:17;;;;;;;17.10;11.02;;;;;;;11.47;75.83;102210.00;5017104;28;20045;-85
2022/05/07 00:26:43;;;;;;;15.15;11.02;;;;;;;11.48;75.76;102209.94;4993794;28;20361;-84
2022/05/07 00:29:08;;;;;;;16.98;11.07;;;;;;;11.50;75.10;102210.72;5025783;28;20036;-85
2022/05/07 00:31:34;;;;;;;17.45;12.05;;;;;;;11.47;75.94;102199.09;5032563;28;20033;-84
2022/05/07 00:33:59;;;;;;;18.02;11.40;;;;;;;11.46;75.29;102205.50;5005881;28;20046;-86
2022/05/07 00:36:24;;;;;;;15.75;11.02;;;;;;;11.43;76.29;102201.13;5003259;28;20199;-87
2022/05/07 00:38:50;;;;;;;16.23;10.77;;;;;;;11.38;76.52;102205.06;5029442;28;20063;-87
2022/05/07 00:41:15;;;;;;;14.80;10.32;;;;;;;11.30;76.15;102202.75;5030004;28;20029;-87
2022/05/07 00:43:41;;;;;;;14.13;10.27;;;;;;;11.29;76.49;102190.09;4994516;28;20139;-87
2022/05/07 00:46:08;;;;;;;17.23;10.00;;;;;;;11.26;76.05;102189.38;5027691;28;20029;-87
2022/05/07 00:48:34;;;;;;;17.58;10.55;;;;;;;11.27;75.97;102192.00;5013871;28;20083;-87
2022/05/07 00:53:46;;;;;;;14.93;10.40;;;;;;;11.20;76.10;102188.75;5012842;28;20045;-86
2022/05/07 00:56:12;;;;;;;14.32;9.80;;;;;;;11.19;76.23;102181.53;5023124;28;20346;-87
2022/05/07 00:58:38;;;;;;;13.75;10.23;;;;;;;11.15;76.67;102187.25;5028607;28;20086;-87
2022/05/07 01:01:04;;;;;;;16.13;9.70;;;;;;;11.16;76.29;102194.44;4994229;28;20037;-87
2022/05/07 01:03:31;;;;;;;12.13;9.10;;;;;;;11.16;76.64;102194.44;5028827;28;20040;-86
2022/05/07 01:05:57;;;;;;;15.18;9.52;;;;;;;11.12;76.22;102182.81;5010869;28;20041;-87
2022/05/07 01:08:25;;;;;;;14.45;10.35;;;;;;;11.17;76.62;102194.34;5011475;28;20136;-87
2022/05/07 01:10:51;;;;;;;12.63;9.13;;;;;;;11.14;76.73;102182.72;4991606;28;20532;-87
2022/05/07 01:13:19;;;;;;;13.50;9.82;;;;;;;11.15;77.03;102192.69;5007419;28;20079;-84
2022/05/07 01:15:53;;;;;;;16.92;10.07;;;;;;;11.09;76.30;102182.09;5008251;28;20516;-87
2022/05/07 01:18:18;;;;;;;15.15;10.45;;;;;;;11.04;76.92;102174.16;5027779;28;20033;-87
2022/05/07 01:20:44;;;;;;;15.07;11.43;;;;;;;11.06;76.96;102187.72;5023639;28;20132;-85
2022/05/07 01:23:11;;;;;;;16.48;11.25;;;;;;;11.03;76.90;102179.72;5027805;28;20053;-87
2022/05/07 01:25:37;;;;;;;18.25;10.95;;;;;;;10.99;76.66;102177.13;5034884;28;20029;-86
2022/05/07 01:28:04;;;;;;;18.67;11.27;;;;;;;10.93;77.28;102177.47;4980286;28;20121;-87
2022/05/07 01:30:33;;;;;;;20.55;12.25;;;;;;;10.92;77.24;102170.25;5025549;28;20373;-88
2022/05/07 01:32:59;;;;;;;16.73;11.07;;;;;;;10.87;77.52;102174.19;4996903;28;20033;-85
2022/05/07 01:35:25;;;;;;;18.02;12.23;;;;;;;10.84;77.47;102174.34;5011200;28;20484;-87
2022/05/07 01:37:53;;;;;;;16.10;10.90;;;;;;;10.81;77.64;102166.34;5035548;28;20046;-85
2022/05/07 01:40:19;;;;;;;16.02;11.20;;;;;;;10.85;77.40;102176.09;5026570;28;20136;-85
2022/05/07 01:42:47;;;;;;;17.00;11.65;;;;;;;10.81;77.70;102175.38;4993559;28;20060;-84
2022/05/07 01:45:13;;;;;;;17.15;11.27;;;;;;;10.81;77.64;102171.78;5015922;28;20108;-87
2022/05/07 01:50:26;;;;;;;17.52;11.50;;;;;;;10.83;77.52;102176.19;5027583;28;20670;-87
2022/05/07 01:52:51;;;;;;;19.17;12.93;;;;;;;10.79;78.02;102168.25;5023157;28;20078;-86
2022/05/07 01:55:17;;;;;;;17.33;11.48;;;;;;;10.77;77.42;102165.63;5007222;28;20458;-85
2022/05/07 01:57:44;;;;;;;17.83;11.10;;;;;;;10.79;77.75;102169.16;5021087;28;20443;-86
2022/05/07 02:00:10;;;;;;;20.27;12.32;;;;;;;10.80;77.29;102168.19;5008764;28;20117;-87
2022/05/07 02:02:40;;;;;;;17.17;11.02;;;;;;;10.79;77.59;102160.97;5031392;28;20467;-87
2022/05/07 02:05:14;;;;;;;17.23;11.88;;;;;;;10.76;77.73;102161.13;5013949;28;20127;-86
2022/05/07 02:07:39;;;;;;;15.10;11.07;;;;;;;10.69;78.04;102146.97;5038076;28;20037;-86
2022/05/07 02:10:05;;;;;;;22.73;13.23;;;;;;;10.65;78.08;102150.81;5033090;28;20028;-87
2022/05/07 02:12:32;;;;;;;18.20;10.70;;;;;;;10.65;78.59;102158.97;5031460;28;20025;-86
2022/05/07 02:14:57;;;;;;;18.00;11.93;;;;;;;10.65;78.42;102158.97;5027790;28;20039;-84
2022/05/07 02:17:24;;;;;;;16.55;11.25;;;;;;;10.62;78.52;102158.25;5008090;28;20136;-87
2022/05/07 02:19:49;;;;;;;17.50;11.38;;;;;;;10.63;77.73;102147.31;5011320;28;20119;-86
2022/05/07 02:22:15;;;;;;;15.88;11.18;;;;;;;10.68;77.99;102149.78;5008492;28;20033;-85
2022/05/07 02:24:40;;;;;;;15.80;11.77;;;;;;;10.65;79.47;102144.47;4992635;28;20029;-86
2022/05/07 02:27:06;;;;;;;15.27;11.18;;;;;;;10.64;78.74;102153.63;4983630;28;20488;-87
2022/05/07 02:29:31;;;;;;;14.60;10.80;;;;;;;10.63;79.32;102143.66;5011779;28;20504;-84
2022/05/07 02:32:06;;;;;;;17.98;12.00;;;;;;;10.64;78.63;102145.44;4996629;28;20189;-87
2022/05/07 02:34:40;;;;;;;17.85;12.38;;;;;;;10.63;78.92;102144.56;5014237;28;20033;-86
2022/05/07 02:37:13;;;;;;;16.98;11.02;;;;;;;10.64;79.20;102140.00;5028506;28;20491;-86
2022/05/07 02:39:39;;;;;;;16.73;11.85;;;;;;;10.65;79.37;102139.91;5009769;28;20056;-87
2022/05/07 02:44:50;;;;;;;18.48;11.30;;;;;;;10.60;78.92;102127.53;5007108;28;20041;-86
2022/05/07 02:47:16;;;;;;;19.10;12.45;;;;;;;10.62;78.99;102139.19;5026552;28;20060;-88
2022/05/07 02:49:41;;;;;;;17.55;12.02;;;;;;;10.59;78.73;102134.81;5010190;28;20038;-87
2022/05/07 02:52:10;;;;;;;20.50;12.27;;;;;;;10.59;78.91;102131.22;5004042;28;20033;-85
2022/05/07 02:54:37;;;;;;;17.52;11.75;;;;;;;10.58;79.04;102129.41;4991533;28;20041;-87
2022/05/07 02:57:02;;;;;;;18.17;11.13;;;;;;;10.56;78.77;102129.50;5009204;28;20040;-87
2022/05/07 02:59:28;;;;;;;18.05;12.10;;;;;;;10.60;78.71;102135.69;5010229;28;20095;-85
2022/05/07 03:01:53;;;;;;;18.27;10.98;;;;;;;10.61;79.35;102137.44;5016095;28;20029;-87
2022/05/07 03:04:19;;;;;;;20.55;11.85;;;;;;;10.61;79.54;102132.88;5006329;28;20104;-86
2022/05/07 03:06:45;;;;;;;16.00;11.38;;;;;;;10.61;78.43;102127.44;5020921;28;20428;-84
2022/05/07 03:09:10;;;;;;;19.05;11.52;;;;;;;10.67;78.91;102137.09;5010337;28;20032;-87
2022/05/07 03:11:36;;;;;;;22.42;11.35;;;;;;;10.64;79.65;102124.56;4999021;28;20029;-86
2022/05/07 03:14:06;;;;;;;20.25;13.60;;;;;;;10.61;80.17;102132.88;5001667;28;20428;-87
2022/05/07 03:16:35;;;;;;;17.02;11.18;;;;;;;10.63;79.65;102130.97;5023390;28;20091;-85
2022/05/07 03:19:01;;;;;;;16.17;11.20;;;;;;;10.65;79.02;102130.88;5031365;28;20436;-87
2022/05/07 03:21:26;;;;;;;18.95;11.80;;;;;;;10.67;79.21;102139.81;5027342;28;20029;-87
2022/05/07 03:23:52;;;;;;;16.20;11.23;;;;;;;10.66;79.44;102132.63;5006510;28;20042;-86
2022/05/07 03:26:21;;;;;;;17.00;11.85;;;;;;;10.67;79.42;102134.38;5012588;28;20187;-85
2022/05/07 03:28:47;;;;;;;23.73;13.15;;;;;;;10.68;79.54;102139.78;4989481;28;20041;-86
2022/05/07 03:31:15;;;;;;;20.75;11.30;;;;;;;10.62;80.07;102128.31;5012275;28;20172;-86
2022/05/07 03:33:40;;;;;;;17.73;12.05;;;;;;;10.59;80.17;102128.50;5026225;28;20216;-86
2022/05/07 03:36:06;;;;;;;19.88;13.13;;;;;;;10.53;80.18;102126.94;5009173;28;20112;-86
2022/05/07 03:38:31;;;;;;;22.85;13.98;;;;;;;10.56;80.41;102136.78;5009173;28;20034;-87
2022/05/07 03:41:04;;;;;;;24.27;14.45;;;;;;;10.58;79.76;102140.31;4983263;28;20038;-87
2022/05/07 03:43:36;;;;;;;19.88;14.20;;;;;;;10.59;79.21;102139.38;4997464;28;20107;-86
2022/05/07 03:46:05;;;;;;;19.70;13.73;;;;;;;10.58;79.87;102140.31;4978975;28;20117;-87
2022/05/07 03:48:31;;;;;;;25.13;14.50;;;;;;;10.62;79.27;102144.63;5008270;28;20107;-86
2022/05/07 03:50:57;;;;;;;22.58;13.45;;;;;;;10.65;79.61;102141.75;5020375;28;20072;-87
2022/05/07 03:53:29;;;;;;;22.90;14.55;;;;;;;10.65;79.10;102145.38;5005666;28;20076;-86
2022/05/07 03:56:08;;;;;;;26.20;15.25;;;;;;;10.67;79.33;102138.00;5025240;28;20090;-85
2022/05/07 03:58:36;;;;;;;30.85;16.92;;;;;;;10.63;79.45;102139.13;5022741;28;20142;-87
2022/05/07 04:01:03;;;;;;;24.10;15.88;;;;;;;10.64;79.68;102151.78;5002987;28;20037;-86
2022/05/07 04:03:30;;;;;;;27.90;15.52;;;;;;;10.64;79.62;102149.06;5024340;28;20396;-86
2022/05/07 04:05:57;;;;;;;27.80;15.90;;;;;;;10.66;79.39;102149.84;5008019;28;20037;-84
2022/05/07 04:08:23;;;;;;;23.73;15.13;;;;;;;10.65;79.38;102149.94;5018981;28;20190;-87
2022/05/07 04:10:50;;;;;;;27.58;15.82;;;;;;;10.67;79.61;102154.31;5009435;28;20033;-86
2022/05/07 04:13:20;;;;;;;24.42;15.80;;;;;;;10.60;79.59;102141.13;5007937;28;20045;-87
2022/05/07 04:15:52;;;;;;;29.77;15.30;;;;;;;10.65;80.07;102153.53;5002947;28;20044;-86
2022/05/07 04:18:19;;;;;;;25.58;15.80;;;;;;;10.62;79.75;102156.41;5007156;28;20042;-86
2022/05/07 04:20:48;;;;;;;25.25;15.48;;;;;;;10.61;80.93;102153.75;5029573;28;20082;-87
2022/05/07 04:23:15;;;;;;;25.98;16.13;;;;;;;10.64;80.83;102159.06;4980845;28;20030;-87
2022/05/07 04:25:44;;;;;;;20.80;14.18;;;;;;;10.59;80.54;102159.31;5027162;28;20087;-87
2022/05/07 04:28:12;;;;;;;19.83;13.95;;;;;;;10.57;80.97;102158.47;4981428;28;20460;-86
2022/05/07 04:30:40;;;;;;;20.05;14.57;;;;;;;10.60;80.71;102166.50;5012075;28;20132;-84
2022/05/07 04:33:06;;;;;;;23.15;14.52;;;;;;;10.61;81.07;102162.81;5018383;28;20429;-84
2022/05/07 04:35:32;;;;;;;21.77;14.77;;;;;;;10.63;80.83;102166.34;5008931;28;20036;-87
2022/05/07 04:38:01;;;;;;;19.35;13.07;;;;;;;10.64;81.14;102161.78;4994258;28;20176;-83
2022/05/07 04:40:28;;;;;;;21.23;14.85;;;;;;;10.66;81.46;102162.56;5018191;28;20125;-87
2022/05/07 04:42:53;;;;;;;23.05;14.70;;;;;;;10.66;81.31;102166.16;5011686;28;20418;-86
2022/05/07 04:45:19;;;;;;;25.90;15.13;;;;;;;10.68;81.10;102163.38;5013528;28;20174;-86
2022/05/07 04:47:57;;;;;;;21.35;14.65;;;;;;;10.77;80.54;102170.16;5006666;28;20044;-87
2022/05/07 04:50:29;;;;;;;22.95;14.68;;;;;;;10.81;81.51;102169.06;5012588;28;20492;-86
2022/05/07 04:53:18;;;;;;;23.85;14.38;;;;;;;10.89;80.83;102170.41;5018116;28;20033;-86
2022/05/07 04:55:44;;;;;;;21.50;14.68;;;;;;;10.90;81.18;102166.72;5009079;28;20393;-87
2022/05/07 04:58:10;;;;;;;26.13;16.85;;;;;;;10.92;81.70;102166.66;4990156;28;20048;-87
2022/05/07 05:00:38;;;;;;;21.73;14.82;;;;;;;10.96;80.52;102171.88;5009417;28;20060;-86
2022/05/07 05:03:10;;;;;;;29.52;18.10;;;;;;;11.03;81.31;102168.81;4991275;28;20385;-87
2022/05/07 05:05:38;;;;;;;28.73;17.77;;;;;;;11.14;80.06;102183.59;5036121;28;20470;-86
2022/05/07 05:08:10;;;;;;;30.90;20.23;;;;;;;11.14;81.21;102169.97;5012199;28;20033;-87
2022/05/07 05:10:36;;;;;;;32.65;17.23;;;;;;;11.20;81.18;102171.53;5018636;28;20028;-87
2022/05/07 05:13:03;;;;;;;30.98;17.88;;;;;;;11.28;81.21;102182.88;5010987;28;20021;-85
2022/05/07 05:15:29;;;;;;;29.67;16.70;;;;;;;11.34;81.18;102185.28;5016508;28;20029;-87
2022/05/07 05:18:01;;;;;;;25.17;17.15;;;;;;;11.44;80.60;102197.44;5007007;28;20079;-87
2022/05/07 05:20:27;;;;;;;29.75;18.50;;;;;;;11.54;80.58;102203.25;4991374;28;20030;-87
2022/05/07 05:22:59;;;;;;;33.83;19.27;;;;;;;11.62;80.20;102205.56;5026357;28;20064;-85
2022/05/07 05:25:32;;;;;;;32.63;20.30;;;;;;;11.68;79.85;102203.38;5024767;28;20032;-87
2022/05/07 05:27:58;;;;;;;29.33;20.05;;;;;;;11.79;80.00;102218.25;5024673;28;20033;-87
2022/05/07 05:30:26;;;;;;;37.53;20.80;;;;;;;11.83;80.64;102218.03;5028570;28;20029;-86
2022/05/07 05:32:59;;;;;;;27.95;18.52;;;;;;;11.91;80.17;102217.63;4990618;28;20421;-87
2022/05/07 05:35:26;;;;;;;31.80;20.30;;;;;;;11.91;79.83;102223.94;5031454;28;20032;-87
2022/05/07 05:37:54;;;;;;;30.63;20.58;;;;;;;11.98;79.90;102227.19;5008685;28;20094;-88
2022/05/07 05:40:20;;;;;;;28.92;19.48;;;;;;;12.05;80.06;102223.16;5026218;28;20035;-88
2022/05/07 05:42:51;;;;;;;33.83;20.98;;;;;;;12.06;79.86;102211.28;5024270;28;20035;-87
2022/05/07 05:45:17;;;;;;;41.25;21.70;;;;;;;12.15;78.81;102213.50;5023367;28;20044;-87
2022/05/07 05:47:44;;;;;;;31.42;21.35;;;;;;;12.26;79.40;102223.78;5026893;28;20032;-88
2022/05/07 05:50:10;;;;;;;33.85;22.73;;;;;;;12.37;78.11;102220.44;5013207;28;20033;-87
2022/05/07 05:52:40;;;;;;;30.40;21.17;;;;;;;12.49;78.11;102220.59;4992019;28;20140;-88
2022/05/07 05:55:06;;;;;;;30.75;21.25;;;;;;;12.57;78.76;102211.97;5023729;28;20129;-87
2022/05/07 05:57:32;;;;;;;33.38;21.05;;;;;;;12.72;78.19;102218.38;5020389;28;20041;-87
2022/05/07 05:59:57;;;;;;;34.13;22.90;;;;;;;12.82;77.01;102218.69;5007153;28;20389;-88
2022/05/07 06:02:25;;;;;;;35.03;23.50;;;;;;;12.93;77.20;102218.94;4987655;28;20091;-87
2022/05/07 06:05:00;;;;;;;32.60;21.83;;;;;;;13.10;76.02;102220.63;5008949;28;20045;-88
2022/05/07 06:07:28;;;;;;;31.00;21.58;;;;;;;13.17;74.96;102220.19;5007178;28;20036;-87
2022/05/07 06:09:57;;;;;;;35.60;21.95;;;;;;;13.28;73.99;102217.69;4995616;28;20033;-86
2022/05/07 06:12:24;;;;;;;34.03;23.40;;;;;;;13.42;74.77;102211.34;5008356;28;20025;-87
2022/05/07 06:14:54;;;;;;;33.53;22.27;;;;;;;13.53;75.06;102218.91;5024458;28;20060;-88
2022/05/07 06:17:19;;;;;;;31.95;21.98;;;;;;;13.64;74.25;102216.38;5007449;28;20037;-86
2022/05/07 06:19:48;;;;;;;35.55;21.15;;;;;;;13.68;73.28;102222.53;5008406;28;20029;-87
2022/05/07 06:22:15;;;;;;;34.38;20.38;;;;;;;13.74;73.56;102225.72;5011065;28;20083;-86
2022/05/07 06:27:32;;;;;;;33.65;20.48;;;;;;;13.87;73.65;102217.63;5006480;28;20052;-87
2022/05/07 06:30:05;;;;;;;34.88;22.48;;;;;;;13.96;73.54;102232.56;5006482;28;20025;-88
2022/05/07 06:32:38;;;;;;;34.00;20.55;;;;;;;13.98;73.63;102230.59;5023624;28;20029;-87
2022/05/07 06:35:08;;;;;;;32.20;18.65;;;;;;;13.99;73.69;102232.38;5025677;28;20025;-87
2022/05/07 06:37:48;;;;;;;31.73;18.70;;;;;;;14.02;73.04;102221.22;5021660;28;20065;-85
2022/05/07 06:40:15;;;;;;;34.00;19.15;;;;;;;14.10;72.88;102227.09;5017856;28;20038;-85
2022/05/07 06:42:45;;;;;;;30.55;17.63;;;;;;;14.19;72.00;102228.34;4997944;28;20038;-88
2022/05/07 06:45:18;;;;;;;27.92;18.15;;;;;;;14.29;72.03;102224.91;5026644;28;20037;-87
2022/05/07 06:47:43;;;;;;;30.63;18.15;;;;;;;14.37;71.63;102229.00;5009070;28;20025;-87
2022/05/07 06:50:09;;;;;;;32.35;19.60;;;;;;;14.44;72.51;102238.53;5013336;28;20025;-86
2022/05/07 06:52:46;;;;;;;36.92;19.27;;;;;;;14.46;71.23;102232.00;4997792;28;20436;-85
2022/05/07 06:55:16;;;;;;;31.25;18.75;;;;;;;14.52;71.92;102234.34;5011216;28;20037;-87
2022/05/07 06:57:42;;;;;;;36.53;18.95;;;;;;;14.69;72.39;102230.50;5024677;28;20049;-87
2022/05/07 07:00:10;;;;;;;28.25;18.52;;;;;;;14.85;71.95;102232.19;5025298;28;20052;-88
2022/05/07 07:02:36;;;;;;;33.28;17.88;;;;;;;14.99;71.90;102224.75;5020919;28;20076;-86
2022/05/07 07:05:03;;;;;;;30.38;17.83;;;;;;;15.14;71.71;102233.78;5025769;28;20067;-87
2022/05/07 07:07:29;;;;;;;30.95;18.95;;;;;;;15.12;68.92;102227.53;5009297;28;20041;-87
2022/05/07 07:09:55;;;;;;;30.23;17.98;;;;;;;15.19;69.47;102227.97;5026435;28;20041;-86
2022/05/07 07:12:20;;;;;;;27.27;18.17;;;;;;;15.34;70.59;102234.25;5024740;28;20049;-86
2022/05/07 07:14:50;;;;;;;28.90;18.27;;;;;;;15.47;69.73;102237.88;5025323;28;20033;-86
2022/05/07 07:17:17;;;;;;;33.80;18.02;;;;;;;15.57;68.85;102236.22;5027150;28;20141;-87
2022/05/07 07:19:43;;;;;;;38.10;20.50;;;;;;;15.57;69.76;102234.41;5027432;28;20060;-88
2022/05/07 07:22:09;;;;;;;32.90;20.10;;;;;;;15.57;68.72;102230.75;5026316;28;20103;-88
2022/05/07 07:24:34;;;;;;;34.85;19.25;;;;;;;15.59;68.20;102230.66;4993827;28;20037;-89
2022/05/07 07:27:00;;;;;;;34.00;18.58;;;;;;;15.75;68.87;102223.97;5004607;28;20772;-86
2022/05/07 07:29:25;;;;;;;28.88;17.20;;;;;;;15.93;67.92;102230.00;5020187;28;20572;-87
2022/05/07 07:31:51;;;;;;;31.27;17.25;;;;;;;16.02;68.01;102232.06;5005013;28;20064;-86
2022/05/07 07:34:16;;;;;;;34.80;17.55;;;;;;;16.06;67.19;102229.97;4996663;28;20444;-86
2022/05/07 07:36:44;;;;;;;31.98;17.73;;;;;;;16.13;66.43;102231.28;5000760;28;20034;-87
2022/05/07 07:39:11;;;;;;;27.70;16.88;;;;;;;16.25;66.58;102229.50;5009448;28;20120;-87
2022/05/07 07:41:36;;;;;;;31.35;16.27;;;;;;;16.41;66.88;102230.09;5009397;28;20113;-89
2022/05/07 07:44:03;;;;;;;34.20;18.55;;;;;;;16.52;66.58;102223.81;4989035;28;20030;-84
2022/05/07 07:49:13;;;;;;;30.70;18.17;;;;;;;16.90;65.43;102237.41;5025206;28;20062;-87
2022/05/07 07:51:40;;;;;;;36.83;17.02;;;;;;;17.23;65.93;102231.16;5009607;28;20099;-87
2022/05/07 07:54:05;;;;;;;37.58;17.40;;;;;;;17.50;60.84;102232.72;5024841;28;20131;-87
2022/05/07 07:56:31;;;;;;;27.10;15.80;;;;;;;18.03;62.65;102228.41;5024144;28;20138;-86
2022/05/07 07:58:56;;;;;;;28.80;15.75;;;;;;;18.61;60.49;102222.69;5025848;28;20451;-86
2022/05/07 08:01:22;;;;;;;25.20;15.60;;;;;;;19.08;57.60;102223.31;5026618;28;20029;-88
2022/05/07 08:03:50;;;;;;;27.45;16.63;;;;;;;19.49;56.83;102216.91;5031178;28;20058;-88
2022/05/07 08:06:16;;;;;;;31.75;16.17;;;;;;;20.13;57.55;102221.31;5013210;28;20061;-88
2022/05/07 08:11:40;;;;;;;31.88;16.73;;;;;;;20.55;54.20;102226.72;5011698;28;20041;-88
2022/05/07 08:14:07;;;;;;;25.52;16.05;;;;;;;;;;5023986;28;20341;-87
2022/05/07 08:16:34;;;;;;;30.70;16.20;;;;;;;20.56;55.78;102218.28;5012189;28;20037;-87
2022/05/07 08:19:00;;;;;;;29.42;17.05;;;;;;;20.63;55.05;102222.22;5002883;28;20060;-88
2022/05/07 08:21:28;;;;;;;28.27;17.63;;;;;;;20.68;53.80;102229.22;5011795;28;20025;-88
2022/05/07 08:23:54;;;;;;;26.67;16.58;;;;;;;20.78;54.46;102224.56;5006427;28;20457;-87
2022/05/07 08:26:26;;;;;;;28.70;18.08;;;;;;;20.80;54.15;102219.78;5011782;28;20511;-87
2022/05/07 08:28:52;;;;;;;26.88;16.77;;;;;;;20.80;55.60;102215.13;5027249;28;20091;-84
2022/05/07 08:31:21;;;;;;;31.38;17.08;;;;;;;20.92;53.30;102234.31;5004889;28;20065;-88
2022/05/07 08:33:47;;;;;;;30.73;17.05;;;;;;;21.08;53.78;102241.03;5031254;28;20064;-86
2022/05/07 08:36:14;;;;;;;30.88;16.83;;;;;;;21.26;54.41;102232.84;5011050;28;20033;-87
2022/05/07 08:38:40;;;;;;;25.73;16.55;;;;;;;21.55;52.41;102235.63;5011754;28;20029;-85
2022/05/07 08:41:06;;;;;;;23.30;14.65;;;;;;;21.79;51.32;102228.72;5013405;28;20065;-87
2022/05/07 08:43:36;;;;;;;30.33;17.15;;;;;;;21.76;48.64;102238.19;5027940;28;20778;-87
2022/05/07 08:46:08;;;;;;;25.98;16.00;;;;;;;22.02;51.51;102234.75;4991129;28;20038;-88
2022/05/07 08:48:34;;;;;;;28.35;16.25;;;;;;;22.39;50.64;102230.09;5027548;28;20503;-85
2022/05/07 08:51:00;;;;;;;23.42;15.07;;;;;;;22.89;49.62;102231.50;5012545;28;20126;-87
2022/05/07 08:53:25;;;;;;;30.25;16.42;;;;;;;23.30;47.47;102224.44;5012583;28;20048;-86
2022/05/07 08:55:54;;;;;;;28.38;16.30;;;;;;;23.60;47.08;102231.47;5011487;28;20036;-88
2022/05/07 08:58:19;;;;;;;25.15;15.68;;;;;;;24.04;44.65;102224.97;5028362;28;20088;-86
2022/05/07 09:00:45;;;;;;;26.23;16.65;;;;;;;24.07;42.43;102230.22;5010969;28;20041;-88
2022/05/07 09:03:15;;;;;;;24.90;16.30;;;;;;;23.92;44.12;102218.81;5001857;28;20025;-84
2022/05/07 09:05:41;;;;;;;24.90;15.38;;;;;;;23.88;44.72;102220.22;5012266;28;20069;-85
2022/05/07 09:08:07;;;;;;;24.38;16.25;;;;;;;23.92;44.44;102221.59;4994059;28;20487;-87
2022/05/07 09:10:35;;;;;;;24.27;15.43;;;;;;;24.27;43.66;102220.56;5032618;28;20037;-87
2022/05/07 09:13:08;;;;;;;24.98;16.65;;;;;;;23.84;44.56;102225.22;5029984;28;20396;-86
2022/05/07 09:15:34;;;;;;;28.42;16.67;;;;;;;23.74;45.27;102226.38;5004193;28;20045;-88
2022/05/07 09:18:00;;;;;;;24.65;15.85;;;;;;;23.83;44.46;102219.84;5013775;28;20470;-87
2022/05/07 09:20:26;;;;;;;25.90;15.75;;;;;;;23.93;44.91;102224.22;5020554;28;20107;-87
2022/05/07 09:22:55;;;;;;;29.15;18.27;;;;;;;23.91;42.97;102225.41;5021247;28;20057;-84
2022/05/07 09:25:25;;;;;;;32.70;18.23;;;;;;;24.25;45.36;102218.97;4993450;28;20091;-90
2022/05/07 09:27:54;;;;;;;29.35;19.63;;;;;;;24.02;41.01;102213.16;5020499;28;20033;-88
2022/05/07 09:30:24;;;;;;;30.35;17.63;;;;;;;23.86;43.39;102212.00;5004803;28;20037;-87
2022/05/07 09:32:51;;;;;;;27.45;16.90;;;;;;;23.66;43.78;102216.94;5013101;28;20060;-85
2022/05/07 09:38:03;;;;;;;27.38;15.73;;;;;;;23.08;46.37;102214.72;5018178;28;20041;-84
2022/05/07 09:40:30;;;;;;;23.90;13.65;;;;;;;23.22;44.98;102221.59;5027591;28;20048;-88
2022/05/07 09:42:57;;;;;;;28.90;16.33;;;;;;;23.02;42.67;102217.25;5016374;28;20952;-86
2022/05/07 09:45:27;;;;;;;25.67;14.65;;;;;;;22.85;44.72;102218.97;5024237;28;20033;-85
2022/05/07 09:48:00;;;;;;;26.02;15.00;;;;;;;23.13;45.43;102219.81;5001458;28;20035;-89
2022/05/07 09:58:51;;;;;;;21.40;10.63;;;;;;;24.19;42.49;102218.59;5026548;28;20033;-86
2022/05/07 10:01:25;;;;;;;19.92;12.00;;;;;;;24.34;42.10;102218.88;5025200;28;20029;-85
2022/05/07 10:04:12;;;;;;;20.92;10.73;;;;;;;24.65;40.74;102215.50;5016476;28;20452;-88
2022/05/07 10:06:54;;;;;;;22.50;12.13;;;;;;;24.60;40.06;102221.56;5009979;28;20065;-85
2022/05/07 10:09:28;;;;;;;;;;;;;;;24.94;44.07;102215.88;5026103;28;20479;-88
2022/05/07 10:11:58;;;;;;;20.42;10.48;;;;;;;24.88;40.19;102226.84;5023472;28;19917;-85
2022/05/07 10:14:29;;;;;;;17.50;10.77;;;;;;;24.71;38.90;102214.81;4997600;28;20036;-86
2022/05/07 10:17:00;;;;;;;18.40;11.25;;;;;;;24.58;36.66;102218.09;5005446;28;20061;-86
2022/05/07 10:19:39;;;;;;;19.15;10.93;;;;;;;24.83;41.86;102212.59;5007954;28;20044;-87
2022/05/07 10:22:16;;;;;;;17.80;10.52;;;;;;;25.10;38.50;102205.88;5007991;28;20107;-85
2022/05/07 10:24:42;;;;;;;20.70;12.90;;;;;;;24.77;35.81;102207.72;5023024;28;20180;-87
2022/05/07 10:27:19;;;;;;;16.77;11.25;;;;;;;24.83;37.03;102209.81;5006668;28;20063;-86
2022/05/07 10:29:44;;;;;;;19.83;12.07;;;;;;;24.93;33.54;102210.50;5008471;28;20108;-85
2022/05/07 10:32:11;;;;;;;104.22;14.93;;;;;;;24.93;37.16;102197.44;5003076;28;20052;-86
2022/05/07 10:34:37;;;;;;;14.63;8.52;;;;;;;25.07;34.36;102209.84;5024979;28;20029;-87
2022/05/07 10:37:05;;;;;;;14.98;8.18;;;;;;;25.12;33.22;102199.06;5023916;28;20041;-87
2022/05/07 10:39:31;;;;;;;17.15;10.50;;;;;;;25.27;34.81;102206.72;4990524;28;20049;-85
2022/05/07 10:41:57;;;;;;;24.27;13.27;;;;;;;25.27;35.11;102206.72;4980685;28;20446;-85
2022/05/07 10:44:34;;;;;;;22.15;12.38;;;;;;;25.32;36.65;102198.69;4999647;28;20068;-86
2022/05/07 10:47:13;;;;;;;21.65;11.27;;;;;;;25.62;38.01;102208.25;4996854;28;20034;-86
2022/05/07 10:50:10;;;;;;;24.10;11.88;;;;;;;25.67;38.99;102214.16;5012858;28;20341;-85
2022/05/07 10:52:36;;;;;;;21.38;11.45;;;;;;;25.47;38.69;102202.53;4994655;28;20051;-85
2022/05/07 10:55:06;;;;;;;23.88;11.23;;;;;;;25.43;37.36;102195.56;5027102;28;20021;-85
2022/05/07 10:57:40;;;;;;;20.35;10.63;;;;;;;25.58;39.44;102195.72;5010059;28;20544;-85
2022/05/07 11:00:11;;;;;;;22.42;11.13;;;;;;;25.72;38.61;102195.00;5022038;28;20044;-85
2022/05/07 11:02:37;;;;;;;16.85;10.07;;;;;;;25.88;38.66;102192.22;4987769;28;20452;-86
2022/05/07 11:05:02;;;;;;;19.95;9.35;;;;;;;25.81;37.70;102185.59;5008262;28;20045;-86
2022/05/07 11:07:30;;;;;;;17.38;9.95;;;;;;;25.36;38.22;102198.16;5018281;28;20514;-85
2022/05/07 11:09:55;;;;;;;19.83;10.43;;;;;;;25.61;39.82;102189.81;5007273;28;20426;-84
2022/05/07 11:12:22;;;;;;;16.98;9.70;;;;;;;25.82;36.63;102186.47;5004495;28;20033;-87
2022/05/07 11:14:48;;;;;;;17.27;10.63;;;;;;;25.79;40.75;102192.41;5008391;28;20048;-87
2022/05/07 11:17:17;;;;;;;16.60;11.10;;;;;;;25.41;36.01;102192.06;5026517;28;20196;-85
2022/05/07 11:19:42;;;;;;;16.17;9.48;;;;;;;25.36;38.07;102192.59;5003113;28;20108;-86
2022/05/07 11:22:10;;;;;;;18.10;9.80;;;;;;;25.39;36.59;102196.97;5026330;28;20408;-86
2022/05/07 11:24:35;;;;;;;20.65;10.00;;;;;;;25.33;36.98;102186.53;5039473;28;20132;-83
2022/05/07 11:27:05;;;;;;;17.90;9.75;;;;;;;25.28;38.58;102201.00;5005052;28;20131;-86
2022/05/07 11:29:31;;;;;;;21.58;10.35;;;;;;;25.37;38.55;102191.59;5023944;28;20387;-82
2022/05/07 11:31:58;;;;;;;25.90;11.65;;;;;;;25.22;41.14;102192.44;5022388;28;20440;-84
2022/05/07 11:34:37;;;;;;;20.40;11.55;;;;;;;25.45;40.57;102197.13;4993662;28;20041;-86
2022/05/07 11:37:20;;;;;;;19.67;11.40;;;;;;;24.96;38.57;102181.47;5006192;28;20037;-86
2022/05/07 11:39:46;;;;;;;18.38;10.20;;;;;;;24.74;41.52;102180.22;5034385;28;20128;-85
2022/05/07 11:42:12;;;;;;;16.83;10.55;;;;;;;25.07;39.77;102176.44;5030878;28;20124;-84
2022/05/07 11:45:37;;;;;;;17.65;9.82;;;;;;;25.33;38.71;102179.03;5021884;28;20069;-85